createdAt,value
2018-08-10T00:01:13.669Z,4.57
2018-08-10T00:03:46.692Z,6.10
2018-08-10T00:06:21.041Z,4.00
2018-08-10T00:08:56.761Z,5.47
2018-08-10T00:11:29.385Z,4.60
2018-08-10T00:14:02.712Z,7.90
2018-08-10T00:16:35.652Z,6.57
2018-08-10T00:19:08.363Z,3.83
2018-08-10T00:21:47.773Z,5.47
2018-08-10T00:24:21.782Z,4.60
2018-08-10T00:26:54.469Z,4.33
2018-08-10T00:29:27.908Z,4.27
2018-08-10T00:32:01.096Z,4.97
2018-08-10T00:34:33.929Z,6.70
2018-08-10T00:37:09.865Z,5.73
2018-08-10T00:39:43.273Z,5.87
2018-08-10T00:42:16.834Z,5.10
2018-08-10T00:44:49.753Z,5.63
2018-08-10T00:47:23.125Z,3.95
2018-08-10T00:49:55.937Z,5.53
2018-08-10T00:52:30.162Z,5.73
2018-08-10T00:55:03.465Z,7.57
2018-08-10T00:57:36.138Z,5.97
2018-08-10T01:00:20.816Z,4.53
2018-08-10T01:02:54.803Z,3.67
2018-08-10T01:05:27.372Z,4.50
2018-08-10T01:08:02.657Z,4.33
2018-08-10T01:10:35.808Z,5.10
2018-08-10T01:13:08.427Z,4.73
2018-08-10T01:15:41.756Z,6.17
2018-08-10T01:18:14.333Z,4.40
2018-08-10T01:20:47.141Z,3.50
2018-08-10T01:23:20.278Z,6.03
2018-08-10T01:25:52.896Z,7.33
2018-08-10T01:28:25.692Z,3.03
2018-08-10T01:30:59.897Z,4.90
2018-08-10T01:33:32.524Z,4.20
2018-08-10T01:36:05.765Z,5.17
2018-08-10T01:38:39.256Z,3.60
2018-08-10T01:41:11.964Z,3.17
2018-08-10T01:43:44.553Z,4.43
2018-08-10T01:46:18.328Z,5.03
2018-08-10T01:48:50.957Z,5.05
2018-08-10T01:51:23.556Z,4.63
2018-08-10T01:53:56.544Z,4.37
2018-08-10T01:56:30.195Z,4.03
2018-08-10T01:59:03.185Z,3.80
2018-08-10T02:01:37.086Z,6.10
2018-08-10T02:04:10.488Z,3.60
2018-08-10T02:06:43.131Z,5.63
2018-08-10T02:09:17.062Z,5.27
2018-08-10T02:11:55.399Z,4.60
2018-08-10T02:14:27.799Z,5.17
2018-08-10T02:17:00.580Z,5.93
2018-08-10T02:19:33.941Z,3.67
2018-08-10T02:22:06.455Z,5.93
2018-08-10T02:24:41.417Z,6.07
2018-08-10T02:27:14.057Z,6.50
2018-08-10T02:29:47.817Z,6.67
2018-08-10T02:32:20.596Z,8.83
2018-08-10T02:34:54.860Z,4.50
2018-08-10T02:37:27.474Z,5.77
2018-08-10T02:40:00.429Z,6.87
2018-08-10T02:42:33.092Z,6.47
2018-08-10T02:45:07.559Z,5.70
2018-08-10T02:47:40.382Z,5.20
2018-08-10T02:50:14.833Z,6.20
2018-08-10T02:52:47.574Z,7.27
2018-08-10T02:55:20.860Z,7.67
2018-08-10T02:57:53.386Z,7.10
2018-08-10T03:00:26.401Z,5.27
2018-08-10T03:02:59.548Z,7.07
2018-08-10T03:05:32.065Z,6.07
2018-08-10T03:08:04.516Z,6.70
2018-08-10T03:10:37.439Z,7.10
2018-08-10T03:13:10.030Z,5.80
2018-08-10T03:15:42.604Z,4.27
2018-08-10T03:18:15.369Z,8.30
2018-08-10T03:20:48.076Z,7.40
2018-08-10T03:23:20.653Z,8.87
2018-08-10T03:25:54.738Z,6.57
2018-08-10T03:28:27.660Z,8.87
2018-08-10T03:31:01.357Z,6.30
2018-08-10T03:33:34.177Z,7.37
2018-08-10T03:36:07.259Z,6.33
2018-08-10T03:38:41.197Z,7.70
2018-08-10T03:41:14.422Z,7.18
2018-08-10T03:43:46.928Z,6.32
2018-08-10T03:46:20.397Z,7.15
2018-08-10T03:48:54.247Z,6.73
2018-08-10T03:51:26.981Z,6.93
2018-08-10T03:53:59.520Z,9.50
2018-08-10T03:56:33.471Z,9.83
2018-08-10T03:59:05.856Z,9.80
2018-08-10T04:01:38.487Z,9.00
2018-08-10T04:04:11.920Z,10.37
2018-08-10T04:06:44.446Z,8.00
2018-08-10T04:09:17.297Z,8.93
2018-08-10T04:11:50.242Z,8.95
2018-08-10T04:14:22.818Z,8.90
2018-08-10T04:16:55.365Z,7.73
2018-08-10T04:19:31.655Z,10.27
2018-08-10T04:22:06.062Z,11.07
2018-08-10T04:24:53.997Z,15.93
2018-08-10T04:27:26.979Z,13.93
2018-08-10T04:29:59.471Z,10.20
2018-08-10T04:32:32.996Z,11.73
2018-08-10T04:35:09.096Z,11.57
2018-08-10T04:37:43.211Z,11.13
2018-08-10T04:40:18.736Z,10.63
2018-08-10T04:42:51.660Z,11.07
2018-08-10T04:45:27.707Z,10.87
2018-08-10T04:48:03.665Z,9.53
2018-08-10T04:50:37.561Z,10.25
2018-08-10T04:53:11.456Z,8.80
2018-08-10T04:55:43.925Z,11.47
2018-08-10T04:58:17.645Z,8.47
2018-08-10T05:00:51.133Z,10.83
2018-08-10T05:03:23.821Z,8.90
2018-08-10T05:05:57.938Z,9.90
2018-08-10T05:08:31.620Z,7.65
2018-08-10T05:11:04.368Z,10.83
2018-08-10T05:13:36.888Z,8.47
2018-08-10T05:16:10.915Z,6.57
2018-08-10T05:18:44.699Z,8.90
2018-08-10T05:21:17.856Z,6.37
2018-08-10T05:23:55.071Z,5.23
2018-08-10T05:26:28.857Z,9.20
2018-08-10T05:29:02.681Z,9.73
2018-08-10T05:31:38.412Z,8.10
2018-08-10T05:34:13.641Z,8.47
2018-08-10T05:36:50.247Z,6.53
2018-08-10T05:39:24.442Z,5.67
2018-08-10T05:41:59.253Z,7.37
2018-08-10T05:44:39.244Z,6.80
2018-08-10T05:47:12.639Z,7.43
2018-08-10T05:49:46.339Z,9.93
2018-08-10T05:52:25.955Z,6.97
2018-08-10T05:54:58.677Z,7.57
2018-08-10T05:57:31.592Z,7.93
2018-08-10T06:00:06.944Z,6.97
2018-08-10T06:02:40.087Z,10.70
2018-08-10T06:05:18.258Z,10.13
2018-08-10T06:07:52.953Z,12.17
2018-08-10T06:10:25.869Z,11.27
2018-08-10T06:12:59.874Z,7.07
2018-08-10T06:15:34.846Z,6.70
2018-08-10T06:18:10.070Z,10.50
2018-08-10T06:20:43.957Z,9.57
2018-08-10T06:23:16.324Z,10.80
2018-08-10T06:25:49.334Z,8.77
2018-08-10T06:28:21.872Z,15.47
2018-08-10T06:30:54.477Z,8.70
2018-08-10T06:33:27.349Z,10.60
2018-08-10T06:36:00.947Z,9.03
2018-08-10T06:38:33.575Z,6.50
2018-08-10T06:41:06.393Z,9.87
2018-08-10T06:43:39.912Z,8.17
2018-08-10T06:46:12.487Z,7.83
2018-08-10T06:48:49.805Z,8.30
2018-08-10T06:51:26.209Z,9.87
2018-08-10T06:53:58.789Z,8.52
2018-08-10T06:56:31.496Z,5.30
2018-08-10T06:59:04.808Z,8.13
2018-08-10T07:01:39.588Z,9.73
2018-08-10T07:04:11.964Z,7.97
2018-08-10T07:06:46.804Z,6.77
2018-08-10T07:09:21.421Z,9.83
2018-08-10T07:11:55.533Z,10.73
2018-08-10T07:14:29.942Z,7.90
2018-08-10T07:17:03.325Z,11.40
2018-08-10T07:19:36.308Z,12.67
2018-08-10T07:22:10.064Z,10.93
2018-08-10T07:24:43.455Z,12.77
2018-08-10T07:27:22.242Z,11.48
2018-08-10T07:29:55.664Z,9.53
2018-08-10T07:32:31.896Z,10.00
2018-08-10T07:35:05.432Z,9.00
2018-08-10T07:37:43.662Z,9.93
2018-08-10T07:40:17.929Z,8.53
2018-08-10T07:42:50.876Z,10.33
2018-08-10T07:45:24.813Z,10.23
2018-08-10T07:47:58.440Z,9.43
2018-08-10T07:50:32.354Z,12.13
2018-08-10T07:53:04.994Z,8.80
2018-08-10T07:55:38.459Z,10.80
2018-08-10T07:58:11.921Z,12.83
2018-08-10T08:00:44.763Z,8.03
2018-08-10T08:03:19.157Z,8.60
2018-08-10T08:05:52.143Z,6.23
2018-08-10T08:08:25.894Z,10.07
2018-08-10T08:11:01.080Z,10.73
2018-08-10T08:13:33.812Z,8.80
2018-08-10T08:16:08.999Z,10.60
2018-08-10T08:18:41.421Z,7.63
2018-08-10T08:21:14.461Z,6.10
2018-08-10T08:23:48.383Z,11.43
2018-08-10T08:26:21.531Z,11.10
2018-08-10T08:28:54.320Z,11.83
2018-08-10T08:31:29.332Z,9.53
2018-08-10T08:34:07.659Z,7.20
2018-08-10T08:36:42.428Z,13.33
2018-08-10T08:39:56.048Z,10.10
2018-08-10T08:42:28.593Z,12.97
2018-08-10T08:45:44.713Z,8.93
2018-08-10T08:48:19.346Z,6.17
2018-08-10T08:50:55.516Z,8.27
2018-08-10T08:53:28.633Z,8.43
2018-08-10T08:56:19.686Z,6.70
2018-08-10T08:58:53.070Z,7.50
2018-08-10T09:01:26.310Z,12.53
2018-08-10T09:05:14.873Z,7.13
2018-08-10T09:07:48.209Z,6.77
2018-08-10T09:10:21.446Z,8.60
2018-08-10T09:12:56.421Z,8.95
2018-08-10T09:15:31.736Z,5.50
2018-08-10T09:18:06.381Z,6.50
2018-08-10T09:20:40.838Z,7.97
2018-08-10T09:23:16.384Z,5.83
2018-08-10T09:25:50.599Z,6.63
2018-08-10T09:28:25.044Z,4.23
2018-08-10T09:31:01.579Z,13.87
2018-08-10T09:33:37.748Z,5.90
2018-08-10T09:36:13.854Z,7.53
2018-08-10T09:38:46.757Z,6.73
2018-08-10T09:41:21.719Z,5.73
2018-08-10T09:43:55.604Z,7.43
2018-08-10T09:46:28.217Z,4.90
2018-08-10T09:49:06.265Z,4.90
2018-08-10T09:51:40.710Z,7.12
2018-08-10T09:54:15.345Z,6.37
2018-08-10T09:56:48.012Z,7.77
2018-08-10T09:59:20.567Z,4.63
2018-08-10T10:01:58.509Z,7.07
2018-08-10T10:04:31.787Z,5.70
2018-08-10T10:07:06.473Z,5.57
2018-08-10T10:09:40.475Z,4.47
2018-08-10T10:12:14.667Z,5.60
2018-08-10T10:14:49.700Z,5.63
2018-08-10T10:17:25.390Z,7.00
2018-08-10T10:20:00.134Z,4.67
2018-08-10T10:22:33.729Z,5.90
2018-08-10T10:25:07.728Z,4.03
2018-08-10T10:27:41.358Z,5.07
2018-08-10T10:30:29.893Z,5.60
2018-08-10T10:33:21.753Z,5.20
2018-08-10T10:36:00.890Z,7.32
2018-08-10T10:38:37.073Z,6.20
2018-08-10T10:41:12.609Z,5.40
2018-08-10T10:43:47.359Z,5.27
2018-08-10T10:46:20.670Z,4.70
2018-08-10T10:48:56.237Z,4.80
2018-08-10T10:51:30.268Z,3.30
2018-08-10T10:54:05.752Z,5.37
2018-08-10T10:56:39.935Z,4.00
2018-08-10T10:59:17.533Z,5.30
2018-08-10T11:01:52.032Z,4.93
2018-08-10T11:04:27.536Z,3.37
2018-08-10T11:07:02.878Z,4.93
2018-08-10T11:09:42.048Z,6.37
2018-08-10T11:12:16.300Z,5.18
2018-08-10T11:14:51.821Z,4.00
2018-08-10T11:17:46.459Z,5.70
2018-08-10T11:20:39.803Z,3.47
2018-08-10T11:23:13.818Z,4.60
2018-08-10T11:25:54.678Z,3.77
2018-08-10T11:28:33.786Z,4.43
2018-08-10T11:31:07.418Z,3.17
2018-08-10T11:33:42.774Z,4.17
2018-08-10T11:36:30.085Z,7.20
2018-08-10T11:39:10.268Z,4.17
2018-08-10T11:41:47.992Z,2.90
2018-08-10T11:44:21.824Z,5.73
2018-08-10T11:46:58.134Z,3.60
2018-08-10T11:49:31.589Z,4.60
2018-08-10T11:52:18.496Z,4.32
2018-08-10T11:54:57.473Z,4.03
2018-08-10T11:57:33.362Z,6.77
2018-08-10T12:00:10.949Z,4.23
2018-08-10T12:02:47.319Z,3.77
2018-08-10T12:05:21.981Z,6.83
2018-08-10T12:07:55.545Z,2.93
2018-08-10T12:10:29.093Z,4.03
2018-08-10T12:13:03.610Z,2.97
2018-08-10T12:15:36.563Z,2.50
2018-08-10T12:18:11.244Z,4.57
2018-08-10T12:20:45.175Z,5.30
2018-08-10T12:23:20.232Z,4.67
2018-08-10T12:25:53.584Z,3.17
2018-08-10T12:28:27.128Z,3.40
2018-08-10T12:31:00.321Z,4.80
2018-08-10T12:33:35.061Z,2.83
2018-08-10T12:36:12.021Z,4.37
2018-08-10T12:38:50.044Z,2.30
2018-08-10T12:41:25.012Z,2.13
2018-08-10T12:43:57.653Z,2.33
2018-08-10T12:46:32.486Z,2.30
2018-08-10T12:49:05.972Z,1.60
2018-08-10T12:51:40.369Z,3.97
2018-08-10T12:54:16.742Z,3.10
2018-08-10T12:56:51.522Z,2.40
2018-08-10T12:59:25.411Z,3.57
2018-08-10T13:01:59.538Z,3.07
2018-08-10T13:04:33.224Z,1.90
2018-08-10T13:07:07.445Z,5.50
2018-08-10T13:09:40.863Z,2.50
2018-08-10T13:12:15.141Z,4.47
2018-08-10T13:14:50.596Z,1.70
2018-08-10T13:17:24.331Z,1.83
2018-08-10T13:19:57.759Z,2.37
2018-08-10T13:22:33.488Z,4.67
2018-08-10T13:25:09.108Z,2.60
2018-08-10T13:27:42.851Z,4.68
2018-08-10T13:30:18.485Z,2.63
2018-08-10T13:32:53.913Z,3.97
2018-08-10T13:35:32.297Z,3.53
2018-08-10T13:38:07.933Z,3.40
2018-08-10T13:40:48.508Z,3.30
2018-08-10T13:43:22.124Z,2.63
2018-08-10T13:45:57.700Z,3.10
2018-08-10T13:48:33.741Z,1.50
2018-08-10T13:51:18.222Z,2.27
2018-08-10T13:54:04.424Z,2.03
2018-08-10T13:56:39.902Z,3.43
2018-08-10T13:59:22.510Z,3.17
2018-08-10T14:02:01.298Z,4.53
2018-08-10T14:04:36.960Z,3.43
2018-08-10T14:07:12.330Z,1.53
2018-08-10T14:09:58.329Z,1.57
2018-08-10T14:12:31.585Z,2.00
2018-08-10T14:15:06.741Z,2.60
2018-08-10T14:17:44.090Z,1.43
2018-08-10T14:20:19.614Z,2.30
2018-08-10T14:22:54.413Z,3.70
2018-08-10T14:25:31.563Z,3.10
2018-08-10T14:28:05.526Z,2.10
2018-08-10T14:30:39.737Z,5.90
2018-08-10T14:33:17.054Z,2.40
2018-08-10T14:35:52.551Z,1.60
2018-08-10T14:38:25.806Z,3.57
2018-08-10T14:40:59.887Z,1.97
2018-08-10T14:43:33.913Z,2.40
2018-08-10T14:46:07.370Z,2.60
2018-08-10T14:48:41.219Z,2.10
2018-08-10T14:51:13.988Z,3.47
2018-08-10T14:53:48.132Z,5.50
2018-08-10T14:56:23.632Z,2.07
2018-08-10T14:59:00.630Z,2.12
2018-08-10T15:01:36.267Z,1.70
2018-08-10T15:04:11.301Z,1.67
2018-08-10T15:06:44.697Z,1.60
2018-08-10T15:09:17.295Z,2.77
2018-08-10T15:11:50.057Z,3.13
2018-08-10T15:14:23.060Z,2.03
2018-08-10T15:16:57.414Z,3.87
2018-08-10T15:19:29.946Z,3.30
2018-08-10T15:22:04.635Z,1.55
2018-08-10T15:24:38.189Z,2.10
2018-08-10T15:27:20.539Z,2.33
2018-08-10T15:29:54.152Z,4.20
2018-08-10T15:32:29.635Z,5.20
2018-08-10T15:35:03.650Z,2.67
2018-08-10T15:37:36.473Z,2.47
2018-08-10T15:40:14.788Z,2.90
2018-08-10T15:42:51.536Z,4.05
2018-08-10T15:45:29.107Z,1.85
2018-08-10T15:48:06.426Z,2.57
2018-08-10T15:50:53.488Z,3.90
2018-08-10T15:53:29.542Z,3.13
2018-08-10T15:56:10.283Z,3.00
2018-08-10T15:58:44.396Z,1.63
2018-08-10T16:01:17.509Z,2.03
2018-08-10T16:03:53.296Z,1.60
2018-08-10T16:06:26.766Z,2.83
2018-08-10T16:09:09.380Z,4.37
2018-08-10T16:11:45.164Z,1.47
2018-08-10T16:14:18.414Z,2.67
2018-08-10T16:16:51.986Z,2.43
2018-08-10T16:19:25.904Z,3.53
2018-08-10T16:22:00.732Z,4.73
2018-08-10T16:24:35.444Z,2.60
2018-08-10T16:27:08.530Z,4.00
2018-08-10T16:29:42.055Z,2.50
2018-08-10T16:32:17.160Z,3.37
2018-08-10T16:34:54.497Z,1.83
2018-08-10T16:37:30.716Z,2.50
2018-08-10T16:40:09.044Z,3.72
2018-08-10T16:42:42.427Z,2.90
2018-08-10T16:45:19.038Z,4.07
2018-08-10T16:47:52.270Z,1.40
2018-08-10T16:50:26.565Z,2.83
2018-08-10T16:53:03.352Z,4.37
2018-08-10T16:55:37.272Z,3.23
2018-08-10T16:58:13.452Z,1.50
2018-08-10T17:00:48.158Z,3.00
2018-08-10T17:03:25.355Z,2.40
2018-08-10T17:06:01.230Z,4.37
2018-08-10T17:08:36.838Z,3.53
2018-08-10T17:11:12.654Z,2.75
2018-08-10T17:13:46.296Z,2.03
2018-08-10T17:16:23.804Z,2.10
2018-08-10T17:18:56.363Z,3.10
2018-08-10T17:21:34.124Z,2.83
2018-08-10T17:24:08.697Z,2.80
2018-08-10T17:26:43.537Z,3.70
2018-08-10T17:29:17.095Z,4.28
2018-08-10T17:31:50.219Z,5.27
2018-08-10T17:34:24.517Z,2.37
2018-08-10T17:36:57.875Z,3.30
2018-08-10T17:39:30.348Z,4.20
2018-08-10T17:42:03.940Z,2.10
2018-08-10T17:44:39.312Z,2.03
2018-08-10T17:47:13.251Z,3.27
2018-08-10T17:49:47.204Z,3.00
2018-08-10T17:52:21.951Z,2.70
2018-08-10T17:54:56.639Z,2.17
2018-08-10T17:57:31.292Z,2.90
2018-08-10T18:00:16.567Z,4.63
2018-08-10T18:02:51.793Z,2.90
2018-08-10T18:05:26.079Z,2.73
2018-08-10T18:08:02.520Z,3.27
2018-08-10T18:10:39.400Z,1.90
2018-08-10T18:13:17.012Z,3.92
2018-08-10T18:15:51.686Z,3.13
2018-08-10T18:18:28.144Z,4.33
2018-08-10T18:21:04.691Z,3.30
2018-08-10T18:23:39.023Z,3.27
2018-08-10T18:26:14.329Z,5.70
2018-08-10T18:28:52.128Z,5.97
2018-08-10T18:31:27.047Z,2.77
2018-08-10T18:34:01.616Z,3.80
2018-08-10T18:36:36.097Z,1.50
2018-08-10T18:39:35.564Z,4.57
2018-08-10T18:42:09.066Z,2.90
2018-08-10T18:44:42.082Z,2.47
2018-08-10T18:47:14.961Z,3.73
2018-08-10T18:49:56.538Z,4.75
2018-08-10T18:52:33.744Z,3.80
2018-08-10T18:55:18.984Z,4.07
2018-08-10T18:57:53.076Z,3.03
2018-08-10T19:00:32.227Z,2.87
2018-08-10T19:03:05.596Z,7.27
2018-08-10T19:05:39.594Z,5.00
2018-08-10T19:08:13.253Z,3.27
2018-08-10T19:10:49.246Z,2.40
2018-08-10T19:13:24.900Z,2.13
2018-08-10T19:15:59.352Z,3.53
2018-08-10T19:18:33.441Z,2.50
2018-08-10T19:21:06.595Z,2.20
2018-08-10T19:23:42.260Z,5.50
2018-08-10T19:26:16.974Z,1.37
2018-08-10T19:28:50.723Z,2.30
2018-08-10T19:31:28.651Z,2.97
2018-08-10T19:34:03.139Z,2.87
2018-08-10T19:36:37.296Z,3.37
2018-08-10T19:39:20.072Z,3.27
2018-08-10T19:41:53.989Z,1.50
2018-08-10T19:44:26.836Z,2.77
2018-08-10T19:47:01.693Z,3.97
2018-08-10T19:49:35.283Z,2.27
2018-08-10T19:52:08.697Z,1.80
2018-08-10T19:54:43.815Z,3.23
2018-08-10T19:57:17.821Z,1.73
2018-08-10T19:59:53.923Z,3.50
2018-08-10T20:02:30.071Z,2.73
2018-08-10T20:05:07.883Z,5.17
2018-08-10T20:07:50.509Z,5.73
2018-08-10T20:10:25.628Z,6.60
2018-08-10T20:13:02.993Z,2.37
2018-08-10T20:15:39.853Z,4.57
2018-08-10T20:18:13.441Z,2.83
2018-08-10T20:20:47.605Z,1.97
2018-08-10T20:23:21.179Z,3.60
2018-08-10T20:25:54.909Z,5.03
2018-08-10T20:28:28.668Z,1.20
2018-08-10T20:31:02.192Z,1.70
2018-08-10T20:33:34.713Z,3.12
2018-08-10T20:36:11.608Z,2.33
2018-08-10T20:38:47.425Z,2.13
2018-08-10T20:41:21.752Z,3.67
2018-08-10T20:43:59.276Z,2.80
2018-08-10T20:46:37.400Z,3.30
2018-08-10T20:49:15.594Z,5.33
2018-08-10T20:51:51.148Z,2.07
2018-08-10T20:55:04.820Z,2.87
2018-08-10T20:57:44.814Z,3.53
2018-08-10T21:00:17.254Z,3.60
2018-08-10T21:02:49.849Z,1.73
2018-08-10T21:05:24.961Z,2.10
2018-08-10T21:08:00.422Z,1.97
2018-08-10T21:10:35.702Z,2.40
2018-08-10T21:13:10.527Z,1.93
2018-08-10T21:15:43.531Z,3.60
2018-08-10T21:18:17.327Z,1.70
2018-08-10T21:20:50.936Z,2.03
2018-08-10T21:23:25.044Z,4.68
2018-08-10T21:25:59.618Z,3.10
2018-08-10T21:28:33.626Z,2.23
2018-08-10T21:31:07.045Z,1.57
2018-08-10T21:33:41.450Z,2.77
2018-08-10T21:36:18.726Z,3.93
2018-08-10T21:38:55.528Z,2.23
2018-08-10T21:41:27.972Z,3.47
2018-08-10T21:44:01.514Z,3.53
2018-08-10T21:46:38.680Z,2.10
2018-08-10T21:49:11.925Z,2.95
2018-08-10T21:51:46.477Z,2.60
2018-08-10T21:54:19.396Z,3.43
2018-08-10T21:56:55.881Z,4.00
2018-08-10T21:59:37.703Z,2.40
2018-08-10T22:02:17.157Z,2.20
2018-08-10T22:04:49.838Z,5.13
2018-08-10T22:07:23.356Z,2.97
2018-08-10T22:10:04.868Z,3.20
2018-08-10T22:12:43.461Z,3.67
2018-08-10T22:15:22.212Z,3.43
2018-08-10T22:18:02.552Z,2.73
2018-08-10T22:20:35.955Z,2.27
2018-08-10T22:23:09.175Z,3.07
2018-08-10T22:25:47.584Z,4.10
2018-08-10T22:28:20.471Z,3.57
2018-08-10T22:30:54.237Z,2.87
2018-08-10T22:33:27.341Z,3.90
2018-08-10T22:36:01.783Z,1.67
2018-08-10T22:38:36.553Z,2.10
2018-08-10T22:41:09.359Z,3.03
2018-08-10T22:43:43.265Z,2.73
2018-08-10T22:46:16.913Z,5.33
2018-08-10T22:48:49.529Z,1.80
2018-08-10T22:51:23.080Z,2.23
2018-08-10T22:53:57.316Z,2.70
2018-08-10T22:56:31.481Z,2.53
2018-08-10T22:59:04.968Z,4.90
2018-08-10T23:01:39.314Z,2.20
2018-08-10T23:04:12.079Z,7.03
2018-08-10T23:06:47.477Z,2.90
2018-08-10T23:09:21.758Z,2.80
2018-08-10T23:11:56.157Z,2.43
2018-08-10T23:14:29.875Z,2.87
2018-08-10T23:17:05.213Z,1.67
2018-08-10T23:19:38.752Z,3.50
2018-08-10T23:22:11.448Z,4.33
2018-08-10T23:24:49.510Z,4.17
2018-08-10T23:27:23.084Z,1.67
2018-08-10T23:29:56.177Z,2.93
2018-08-10T23:32:30.864Z,2.53
2018-08-10T23:35:04.208Z,2.80
2018-08-10T23:37:37.396Z,2.77
2018-08-10T23:40:14.690Z,4.03
2018-08-10T23:42:47.778Z,2.30
2018-08-10T23:45:22.829Z,2.60
2018-08-10T23:47:59.855Z,3.50
2018-08-10T23:50:36.669Z,3.37
2018-08-10T23:53:10.428Z,4.68
2018-08-10T23:55:44.541Z,3.72
2018-08-10T23:58:19.859Z,3.33
